sensor_id;sensor_type;location;lat;lon;timestamp;P1;durP1;ratioP1;P2;durP2;ratioP2
23716;SDS011;22094;52.130;5.598;2023-04-03T00:01:29;2.15;;;1.80;;
23716;SDS011;22094;52.130;5.598;2023-04-03T00:03:54;2.63;;;2.20;;
23716;SDS011;22094;52.130;5.598;2023-04-03T00:06:20;5.15;;;2.08;;
23716;SDS011;22094;52.130;5.598;2023-04-03T00:08:47;3.08;;;1.95;;
23716;SDS011;22094;52.130;5.598;2023-04-03T00:11:12;2.67;;;1.80;;
23716;SDS011;22094;52.130;5.598;2023-04-03T00:13:38;3.67;;;2.20;;
23716;SDS011;22094;52.130;5.598;2023-04-03T00:16:05;6.32;;;1.80;;
23716;SDS011;22094;52.130;5.598;2023-04-03T00:18:31;3.45;;;2.13;;
23716;SDS011;22094;52.130;5.598;2023-04-03T00:20:57;3.38;;;1.92;;
23716;SDS011;22094;52.130;5.598;2023-04-03T00:23:22;7.40;;;2.72;;
23716;SDS011;22094;52.130;5.598;2023-04-03T00:25:51;3.45;;;1.98;;
23716;SDS011;22094;52.130;5.598;2023-04-03T00:28:16;10.93;;;2.17;;
23716;SDS011;22094;52.130;5.598;2023-04-03T00:30:42;2.63;;;1.70;;
23716;SDS011;22094;52.130;5.598;2023-04-03T00:33:09;2.85;;;2.25;;
23716;SDS011;22094;52.130;5.598;2023-04-03T00:35:37;4.40;;;2.10;;
23716;SDS011;22094;52.130;5.598;2023-04-03T00:38:03;3.75;;;2.00;;
23716;SDS011;22094;52.130;5.598;2023-04-03T00:40:32;4.47;;;2.08;;
23716;SDS011;22094;52.130;5.598;2023-04-03T00:43:05;3.63;;;2.15;;
23716;SDS011;22094;52.130;5.598;2023-04-03T00:45:43;3.00;;;2.00;;
23716;SDS011;22094;52.130;5.598;2023-04-03T00:48:12;3.10;;;2.10;;
23716;SDS011;22094;52.130;5.598;2023-04-03T00:50:42;4.68;;;2.03;;
23716;SDS011;22094;52.130;5.598;2023-04-03T00:53:10;5.20;;;2.20;;
23716;SDS011;22094;52.130;5.598;2023-04-03T00:55:39;3.70;;;2.22;;
23716;SDS011;22094;52.130;5.598;2023-04-03T00:58:06;7.30;;;2.40;;
23716;SDS011;22094;52.130;5.598;2023-04-03T01:00:33;5.55;;;2.42;;
23716;SDS011;22094;52.130;5.598;2023-04-03T01:03:00;4.85;;;2.25;;
23716;SDS011;22094;52.130;5.598;2023-04-03T01:05:26;2.95;;;2.03;;
23716;SDS011;22094;52.130;5.598;2023-04-03T01:07:51;2.80;;;2.25;;
23716;SDS011;22094;52.130;5.598;2023-04-03T01:10:19;3.83;;;2.08;;
23716;SDS011;22094;52.130;5.598;2023-04-03T01:12:46;3.22;;;1.88;;
23716;SDS011;22094;52.130;5.598;2023-04-03T01:15:16;4.55;;;2.33;;
23716;SDS011;22094;52.130;5.598;2023-04-03T01:17:45;4.00;;;2.00;;
23716;SDS011;22094;52.130;5.598;2023-04-03T01:25:35;4.40;;;2.35;;
23716;SDS011;22094;52.130;5.598;2023-04-03T01:28:02;4.57;;;2.38;;
23716;SDS011;22094;52.130;5.598;2023-04-03T01:30:41;4.35;;;2.05;;
23716;SDS011;22094;52.130;5.598;2023-04-03T01:33:13;3.72;;;2.10;;
23716;SDS011;22094;52.130;5.598;2023-04-03T01:35:39;6.93;;;2.53;;
23716;SDS011;22094;52.130;5.598;2023-04-03T01:38:04;3.40;;;2.45;;
23716;SDS011;22094;52.130;5.598;2023-04-03T01:40:30;4.95;;;2.40;;
23716;SDS011;22094;52.130;5.598;2023-04-03T01:42:56;5.07;;;2.60;;
23716;SDS011;22094;52.130;5.598;2023-04-03T01:45:22;3.65;;;2.25;;
23716;SDS011;22094;52.130;5.598;2023-04-03T01:47:47;4.05;;;2.50;;
23716;SDS011;22094;52.130;5.598;2023-04-03T01:50:13;6.47;;;2.60;;
23716;SDS011;22094;52.130;5.598;2023-04-03T01:52:38;5.30;;;2.55;;
23716;SDS011;22094;52.130;5.598;2023-04-03T01:55:04;5.93;;;2.38;;
23716;SDS011;22094;52.130;5.598;2023-04-03T01:57:30;4.75;;;2.40;;
23716;SDS011;22094;52.130;5.598;2023-04-03T01:59:56;4.55;;;2.60;;
23716;SDS011;22094;52.130;5.598;2023-04-03T02:02:21;4.22;;;2.53;;
23716;SDS011;22094;52.130;5.598;2023-04-03T02:04:47;3.40;;;2.35;;
23716;SDS011;22094;52.130;5.598;2023-04-03T02:07:12;5.10;;;2.63;;
23716;SDS011;22094;52.130;5.598;2023-04-03T02:09:38;6.70;;;2.75;;
23716;SDS011;22094;52.130;5.598;2023-04-03T02:12:03;3.97;;;2.50;;
23716;SDS011;22094;52.130;5.598;2023-04-03T02:14:29;4.28;;;2.70;;
23716;SDS011;22094;52.130;5.598;2023-04-03T02:16:55;5.75;;;2.92;;
23716;SDS011;22094;52.130;5.598;2023-04-03T02:19:20;3.83;;;2.45;;
23716;SDS011;22094;52.130;5.598;2023-04-03T02:21:46;4.88;;;2.88;;
23716;SDS011;22094;52.130;5.598;2023-04-03T02:24:12;6.25;;;2.65;;
23716;SDS011;22094;52.130;5.598;2023-04-03T02:26:37;5.60;;;2.90;;
23716;SDS011;22094;52.130;5.598;2023-04-03T02:29:03;5.57;;;2.50;;
23716;SDS011;22094;52.130;5.598;2023-04-03T02:31:28;6.43;;;3.35;;
23716;SDS011;22094;52.130;5.598;2023-04-03T02:33:54;5.50;;;2.92;;
23716;SDS011;22094;52.130;5.598;2023-04-03T02:36:20;5.68;;;2.83;;
23716;SDS011;22094;52.130;5.598;2023-04-03T02:38:45;5.95;;;2.97;;
23716;SDS011;22094;52.130;5.598;2023-04-03T02:41:11;5.40;;;2.90;;
23716;SDS011;22094;52.130;5.598;2023-04-03T02:43:38;5.22;;;3.45;;
23716;SDS011;22094;52.130;5.598;2023-04-03T02:46:04;9.82;;;3.42;;
23716;SDS011;22094;52.130;5.598;2023-04-03T02:48:30;6.78;;;3.15;;
23716;SDS011;22094;52.130;5.598;2023-04-03T02:50:56;5.97;;;3.17;;
23716;SDS011;22094;52.130;5.598;2023-04-03T02:53:22;5.55;;;2.95;;
23716;SDS011;22094;52.130;5.598;2023-04-03T02:55:48;7.18;;;3.15;;
23716;SDS011;22094;52.130;5.598;2023-04-03T02:58:14;3.78;;;2.85;;
23716;SDS011;22094;52.130;5.598;2023-04-03T03:00:39;7.80;;;3.17;;
23716;SDS011;22094;52.130;5.598;2023-04-03T03:03:05;6.53;;;2.95;;
23716;SDS011;22094;52.130;5.598;2023-04-03T03:05:31;5.75;;;3.20;;
23716;SDS011;22094;52.130;5.598;2023-04-03T03:07:57;7.30;;;3.28;;
23716;SDS011;22094;52.130;5.598;2023-04-03T03:10:22;6.43;;;3.28;;
23716;SDS011;22094;52.130;5.598;2023-04-03T03:12:48;4.80;;;3.30;;
23716;SDS011;22094;52.130;5.598;2023-04-03T03:15:14;7.63;;;3.00;;
23716;SDS011;22094;52.130;5.598;2023-04-03T03:17:42;5.63;;;3.45;;
23716;SDS011;22094;52.130;5.598;2023-04-03T03:20:08;5.57;;;3.10;;
23716;SDS011;22094;52.130;5.598;2023-04-03T03:22:34;5.07;;;3.03;;
23716;SDS011;22094;52.130;5.598;2023-04-03T03:25:01;11.32;;;3.85;;
23716;SDS011;22094;52.130;5.598;2023-04-03T03:27:27;9.05;;;3.00;;
23716;SDS011;22094;52.130;5.598;2023-04-03T03:29:53;10.63;;;3.63;;
23716;SDS011;22094;52.130;5.598;2023-04-03T03:32:19;7.85;;;3.35;;
23716;SDS011;22094;52.130;5.598;2023-04-03T03:34:45;6.75;;;3.70;;
23716;SDS011;22094;52.130;5.598;2023-04-03T03:37:10;7.78;;;3.30;;
23716;SDS011;22094;52.130;5.598;2023-04-03T03:39:36;6.18;;;3.20;;
23716;SDS011;22094;52.130;5.598;2023-04-03T03:42:01;9.77;;;3.58;;
23716;SDS011;22094;52.130;5.598;2023-04-03T03:44:27;6.43;;;3.50;;
23716;SDS011;22094;52.130;5.598;2023-04-03T03:46:54;4.40;;;3.50;;
23716;SDS011;22094;52.130;5.598;2023-04-03T03:49:20;7.30;;;3.80;;
23716;SDS011;22094;52.130;5.598;2023-04-03T03:51:45;6.28;;;3.45;;
23716;SDS011;22094;52.130;5.598;2023-04-03T03:54:11;7.72;;;3.72;;
23716;SDS011;22094;52.130;5.598;2023-04-03T03:56:37;9.73;;;3.58;;
23716;SDS011;22094;52.130;5.598;2023-04-03T03:59:03;9.07;;;3.30;;
23716;SDS011;22094;52.130;5.598;2023-04-03T04:01:33;9.85;;;4.22;;
23716;SDS011;22094;52.130;5.598;2023-04-03T04:04:09;7.75;;;3.92;;
23716;SDS011;22094;52.130;5.598;2023-04-03T04:06:35;11.45;;;4.22;;
23716;SDS011;22094;52.130;5.598;2023-04-03T04:09:00;7.88;;;3.95;;
23716;SDS011;22094;52.130;5.598;2023-04-03T04:11:26;7.25;;;4.30;;
23716;SDS011;22094;52.130;5.598;2023-04-03T04:13:52;8.63;;;3.88;;
23716;SDS011;22094;52.130;5.598;2023-04-03T04:16:18;9.60;;;4.07;;
23716;SDS011;22094;52.130;5.598;2023-04-03T04:18:43;9.20;;;4.32;;
23716;SDS011;22094;52.130;5.598;2023-04-03T04:21:09;8.45;;;4.35;;
23716;SDS011;22094;52.130;5.598;2023-04-03T04:23:34;7.72;;;4.07;;
23716;SDS011;22094;52.130;5.598;2023-04-03T04:26:00;7.25;;;4.18;;
23716;SDS011;22094;52.130;5.598;2023-04-03T04:28:26;9.00;;;3.95;;
23716;SDS011;22094;52.130;5.598;2023-04-03T04:30:52;8.80;;;4.15;;
23716;SDS011;22094;52.130;5.598;2023-04-03T04:33:17;12.55;;;4.78;;
23716;SDS011;22094;52.130;5.598;2023-04-03T04:35:43;8.23;;;4.13;;
23716;SDS011;22094;52.130;5.598;2023-04-03T04:38:09;11.35;;;4.40;;
23716;SDS011;22094;52.130;5.598;2023-04-03T04:40:34;10.50;;;4.70;;
23716;SDS011;22094;52.130;5.598;2023-04-03T04:43:00;8.65;;;4.90;;
23716;SDS011;22094;52.130;5.598;2023-04-03T04:45:26;9.48;;;4.45;;
23716;SDS011;22094;52.130;5.598;2023-04-03T04:47:53;9.93;;;4.47;;
23716;SDS011;22094;52.130;5.598;2023-04-03T04:50:20;8.13;;;4.25;;
23716;SDS011;22094;52.130;5.598;2023-04-03T04:52:46;9.40;;;4.28;;
23716;SDS011;22094;52.130;5.598;2023-04-03T04:55:11;13.77;;;4.88;;
23716;SDS011;22094;52.130;5.598;2023-04-03T04:57:37;7.93;;;4.70;;
23716;SDS011;22094;52.130;5.598;2023-04-03T05:00:03;11.48;;;5.03;;
23716;SDS011;22094;52.130;5.598;2023-04-03T05:02:35;12.73;;;5.13;;
23716;SDS011;22094;52.130;5.598;2023-04-03T05:05:03;7.10;;;4.55;;
23716;SDS011;22094;52.130;5.598;2023-04-03T05:07:29;9.75;;;4.55;;
23716;SDS011;22094;52.130;5.598;2023-04-03T05:09:54;10.80;;;5.32;;
23716;SDS011;22094;52.130;5.598;2023-04-03T05:12:20;8.15;;;5.38;;
23716;SDS011;22094;52.130;5.598;2023-04-03T05:14:45;8.95;;;4.75;;
23716;SDS011;22094;52.130;5.598;2023-04-03T05:17:11;9.05;;;4.70;;
23716;SDS011;22094;52.130;5.598;2023-04-03T05:19:37;10.32;;;5.50;;
23716;SDS011;22094;52.130;5.598;2023-04-03T05:22:02;12.35;;;4.82;;
23716;SDS011;22094;52.130;5.598;2023-04-03T05:24:28;12.45;;;5.18;;
23716;SDS011;22094;52.130;5.598;2023-04-03T05:26:53;8.65;;;4.70;;
23716;SDS011;22094;52.130;5.598;2023-04-03T05:29:20;11.48;;;4.63;;
23716;SDS011;22094;52.130;5.598;2023-04-03T05:31:46;10.75;;;5.00;;
23716;SDS011;22094;52.130;5.598;2023-04-03T05:34:13;13.32;;;5.63;;
23716;SDS011;22094;52.130;5.598;2023-04-03T05:36:39;8.93;;;4.80;;
23716;SDS011;22094;52.130;5.598;2023-04-03T05:39:05;8.30;;;5.03;;
23716;SDS011;22094;52.130;5.598;2023-04-03T05:41:31;14.02;;;5.28;;
23716;SDS011;22094;52.130;5.598;2023-04-03T05:43:56;9.73;;;5.00;;
23716;SDS011;22094;52.130;5.598;2023-04-03T05:46:22;11.18;;;4.55;;
23716;SDS011;22094;52.130;5.598;2023-04-03T05:48:47;9.68;;;4.47;;
23716;SDS011;22094;52.130;5.598;2023-04-03T05:51:17;7.03;;;3.97;;
23716;SDS011;22094;52.130;5.598;2023-04-03T05:53:48;10.00;;;3.88;;
23716;SDS011;22094;52.130;5.598;2023-04-03T05:56:24;4.95;;;3.03;;
23716;SDS011;22094;52.130;5.598;2023-04-03T05:58:50;5.00;;;3.55;;
23716;SDS011;22094;52.130;5.598;2023-04-03T06:01:15;7.68;;;3.53;;
23716;SDS011;22094;52.130;5.598;2023-04-03T06:03:41;8.15;;;3.42;;
23716;SDS011;22094;52.130;5.598;2023-04-03T06:06:06;9.77;;;3.00;;
23716;SDS011;22094;52.130;5.598;2023-04-03T06:08:33;7.72;;;3.22;;
23716;SDS011;22094;52.130;5.598;2023-04-03T06:10:59;8.63;;;3.20;;
23716;SDS011;22094;52.130;5.598;2023-04-03T06:13:24;6.55;;;3.13;;
23716;SDS011;22094;52.130;5.598;2023-04-03T06:15:50;6.18;;;3.35;;
23716;SDS011;22094;52.130;5.598;2023-04-03T06:18:15;7.60;;;3.45;;
23716;SDS011;22094;52.130;5.598;2023-04-03T06:20:41;5.72;;;3.60;;
23716;SDS011;22094;52.130;5.598;2023-04-03T06:23:06;7.60;;;3.60;;
23716;SDS011;22094;52.130;5.598;2023-04-03T06:25:32;8.57;;;3.55;;
23716;SDS011;22094;52.130;5.598;2023-04-03T06:27:58;7.15;;;3.60;;
23716;SDS011;22094;52.130;5.598;2023-04-03T06:30:24;8.60;;;3.85;;
23716;SDS011;22094;52.130;5.598;2023-04-03T06:32:49;9.07;;;3.90;;
23716;SDS011;22094;52.130;5.598;2023-04-03T06:35:15;4.65;;;3.22;;
23716;SDS011;22094;52.130;5.598;2023-04-03T06:37:40;9.05;;;3.67;;
23716;SDS011;22094;52.130;5.598;2023-04-03T06:40:06;7.32;;;3.53;;
23716;SDS011;22094;52.130;5.598;2023-04-03T06:42:38;8.32;;;3.80;;
23716;SDS011;22094;52.130;5.598;2023-04-03T06:45:03;5.55;;;3.55;;
23716;SDS011;22094;52.130;5.598;2023-04-03T06:47:29;6.53;;;3.67;;
23716;SDS011;22094;52.130;5.598;2023-04-03T06:49:55;9.60;;;3.53;;
23716;SDS011;22094;52.130;5.598;2023-04-03T06:52:22;8.55;;;3.70;;
23716;SDS011;22094;52.130;5.598;2023-04-03T06:54:48;7.47;;;3.85;;
23716;SDS011;22094;52.130;5.598;2023-04-03T06:57:14;7.57;;;3.47;;
23716;SDS011;22094;52.130;5.598;2023-04-03T06:59:40;7.80;;;3.47;;
23716;SDS011;22094;52.130;5.598;2023-04-03T07:02:06;8.45;;;3.75;;
23716;SDS011;22094;52.130;5.598;2023-04-03T07:04:31;7.18;;;3.80;;
23716;SDS011;22094;52.130;5.598;2023-04-03T07:06:57;8.00;;;3.65;;
23716;SDS011;22094;52.130;5.598;2023-04-03T07:09:23;5.68;;;3.30;;
23716;SDS011;22094;52.130;5.598;2023-04-03T07:11:48;7.30;;;3.33;;
23716;SDS011;22094;52.130;5.598;2023-04-03T07:14:14;6.65;;;3.17;;
23716;SDS011;22094;52.130;5.598;2023-04-03T07:16:39;8.85;;;3.60;;
23716;SDS011;22094;52.130;5.598;2023-04-03T07:19:05;6.03;;;3.03;;
23716;SDS011;22094;52.130;5.598;2023-04-03T07:21:31;10.25;;;3.67;;
23716;SDS011;22094;52.130;5.598;2023-04-03T07:23:56;7.75;;;2.92;;
23716;SDS011;22094;52.130;5.598;2023-04-03T07:26:22;5.50;;;2.80;;
23716;SDS011;22094;52.130;5.598;2023-04-03T07:28:48;6.00;;;2.83;;
23716;SDS011;22094;52.130;5.598;2023-04-03T07:31:15;9.60;;;3.05;;
23716;SDS011;22094;52.130;5.598;2023-04-03T07:33:42;7.78;;;2.63;;
23716;SDS011;22094;52.130;5.598;2023-04-03T07:36:09;4.30;;;2.50;;
23716;SDS011;22094;52.130;5.598;2023-04-03T07:38:36;3.85;;;2.38;;
23716;SDS011;22094;52.130;5.598;2023-04-03T07:41:02;9.85;;;2.35;;
23716;SDS011;22094;52.130;5.598;2023-04-03T07:43:29;4.43;;;2.10;;
23716;SDS011;22094;52.130;5.598;2023-04-03T07:45:54;5.15;;;2.38;;
23716;SDS011;22094;52.130;5.598;2023-04-03T07:48:21;3.65;;;1.92;;
23716;SDS011;22094;52.130;5.598;2023-04-03T07:50:48;3.03;;;2.03;;
23716;SDS011;22094;52.130;5.598;2023-04-03T07:53:14;5.53;;;2.08;;
23716;SDS011;22094;52.130;5.598;2023-04-03T07:55:40;4.18;;;1.80;;
23716;SDS011;22094;52.130;5.598;2023-04-03T07:58:13;3.80;;;1.90;;
23716;SDS011;22094;52.130;5.598;2023-04-03T08:00:40;3.70;;;1.90;;
23716;SDS011;22094;52.130;5.598;2023-04-03T08:03:07;3.55;;;2.00;;
23716;SDS011;22094;52.130;5.598;2023-04-03T08:05:42;6.43;;;2.08;;
23716;SDS011;22094;52.130;5.598;2023-04-03T08:08:11;3.35;;;2.10;;
23716;SDS011;22094;52.130;5.598;2023-04-03T08:10:37;3.70;;;1.77;;
23716;SDS011;22094;52.130;5.598;2023-04-03T08:13:03;4.50;;;2.10;;
23716;SDS011;22094;52.130;5.598;2023-04-03T08:15:30;4.30;;;1.75;;
23716;SDS011;22094;52.130;5.598;2023-04-03T08:17:56;3.08;;;1.63;;
23716;SDS011;22094;52.130;5.598;2023-04-03T08:20:22;3.10;;;1.70;;
23716;SDS011;22094;52.130;5.598;2023-04-03T08:22:48;4.80;;;1.67;;
23716;SDS011;22094;52.130;5.598;2023-04-03T08:25:14;3.33;;;1.52;;
23716;SDS011;22094;52.130;5.598;2023-04-03T08:27:40;2.55;;;1.30;;
23716;SDS011;22094;52.130;5.598;2023-04-03T08:30:06;2.67;;;1.70;;
23716;SDS011;22094;52.130;5.598;2023-04-03T08:32:33;4.47;;;1.52;;
23716;SDS011;22094;52.130;5.598;2023-04-03T08:35:00;3.53;;;1.30;;
23716;SDS011;22094;52.130;5.598;2023-04-03T08:37:25;2.47;;;1.30;;
23716;SDS011;22094;52.130;5.598;2023-04-03T08:39:51;3.17;;;1.20;;
23716;SDS011;22094;52.130;5.598;2023-04-03T08:42:30;2.60;;;1.30;;
23716;SDS011;22094;52.130;5.598;2023-04-03T08:45:17;4.68;;;1.73;;
23716;SDS011;22094;52.130;5.598;2023-04-03T08:50:14;3.08;;;1.17;;
23716;SDS011;22094;52.130;5.598;2023-04-03T08:52:41;1.95;;;1.00;;
23716;SDS011;22094;52.130;5.598;2023-04-03T08:57:46;1.10;;;1.00;;
23716;SDS011;22094;52.130;5.598;2023-04-03T09:00:16;3.22;;;1.10;;
23716;SDS011;22094;52.130;5.598;2023-04-03T09:02:44;1.27;;;0.90;;
23716;SDS011;22094;52.130;5.598;2023-04-03T09:05:12;3.35;;;0.98;;
23716;SDS011;22094;52.130;5.598;2023-04-03T09:07:53;2.20;;;1.05;;
23716;SDS011;22094;52.130;5.598;2023-04-03T09:10:39;1.33;;;0.77;;
23716;SDS011;22094;52.130;5.598;2023-04-03T09:13:08;1.40;;;0.88;;
23716;SDS011;22094;52.130;5.598;2023-04-03T09:15:37;1.77;;;0.77;;
23716;SDS011;22094;52.130;5.598;2023-04-03T09:23:38;2.17;;;0.80;;
23716;SDS011;22094;52.130;5.598;2023-04-03T09:26:18;1.80;;;0.80;;
23716;SDS011;22094;52.130;5.598;2023-04-03T09:28:54;2.05;;;0.80;;
23716;SDS011;22094;52.130;5.598;2023-04-03T09:31:26;2.08;;;0.80;;
23716;SDS011;22094;52.130;5.598;2023-04-03T09:33:57;1.83;;;0.80;;
23716;SDS011;22094;52.130;5.598;2023-04-03T09:36:37;3.28;;;0.90;;
23716;SDS011;22094;52.130;5.598;2023-04-03T09:39:12;1.52;;;0.93;;
23716;SDS011;22094;52.130;5.598;2023-04-03T09:41:41;0.70;;;0.70;;
23716;SDS011;22094;52.130;5.598;2023-04-03T09:44:20;0.90;;;0.70;;
23716;SDS011;22094;52.130;5.598;2023-04-03T09:46:50;1.27;;;0.90;;
23716;SDS011;22094;52.130;5.598;2023-04-03T09:49:17;1.05;;;0.70;;
23716;SDS011;22094;52.130;5.598;2023-04-03T09:51:43;2.30;;;0.70;;
23716;SDS011;22094;52.130;5.598;2023-04-03T09:57:06;2.47;;;0.68;;
23716;SDS011;22094;52.130;5.598;2023-04-03T09:59:43;2.45;;;1.00;;
23716;SDS011;22094;52.130;5.598;2023-04-03T10:02:28;2.00;;;0.73;;
23716;SDS011;22094;52.130;5.598;2023-04-03T10:04:56;1.33;;;0.90;;
23716;SDS011;22094;52.130;5.598;2023-04-03T10:07:26;1.67;;;0.73;;
23716;SDS011;22094;52.130;5.598;2023-04-03T10:09:57;3.95;;;0.90;;
23716;SDS011;22094;52.130;5.598;2023-04-03T10:12:24;3.17;;;0.80;;
23716;SDS011;22094;52.130;5.598;2023-04-03T10:17:35;1.55;;;0.65;;
23716;SDS011;22094;52.130;5.598;2023-04-03T10:20:22;1.60;;;0.80;;
23716;SDS011;22094;52.130;5.598;2023-04-03T10:28:31;0.82;;;0.68;;
23716;SDS011;22094;52.130;5.598;2023-04-03T10:31:03;1.55;;;0.70;;
23716;SDS011;22094;52.130;5.598;2023-04-03T10:34:06;1.42;;;0.70;;
23716;SDS011;22094;52.130;5.598;2023-04-03T10:46:52;1.30;;;0.73;;
23716;SDS011;22094;52.130;5.598;2023-04-03T10:52:22;1.88;;;0.90;;
23716;SDS011;22094;52.130;5.598;2023-04-03T10:57:27;1.13;;;0.82;;
23716;SDS011;22094;52.130;5.598;2023-04-03T10:59:55;1.73;;;1.00;;
23716;SDS011;22094;52.130;5.598;2023-04-03T11:04:51;1.27;;;1.17;;
23716;SDS011;22094;52.130;5.598;2023-04-03T11:07:36;1.27;;;0.80;;
23716;SDS011;22094;52.130;5.598;2023-04-03T11:10:10;1.95;;;0.80;;
23716;SDS011;22094;52.130;5.598;2023-04-03T11:12:51;1.42;;;1.00;;
23716;SDS011;22094;52.130;5.598;2023-04-03T11:15:20;2.42;;;0.70;;
23716;SDS011;22094;52.130;5.598;2023-04-03T11:17:49;2.70;;;0.70;;
23716;SDS011;22094;52.130;5.598;2023-04-03T11:25:34;2.58;;;1.23;;
23716;SDS011;22094;52.130;5.598;2023-04-03T11:28:04;3.53;;;1.02;;
23716;SDS011;22094;52.130;5.598;2023-04-03T11:33:50;3.78;;;1.15;;
23716;SDS011;22094;52.130;5.598;2023-04-03T11:36:30;1.75;;;1.00;;
23716;SDS011;22094;52.130;5.598;2023-04-03T11:39:14;1.42;;;0.85;;
23716;SDS011;22094;52.130;5.598;2023-04-03T11:41:50;1.75;;;0.90;;
23716;SDS011;22094;52.130;5.598;2023-04-03T11:44:33;1.80;;;1.00;;
23716;SDS011;22094;52.130;5.598;2023-04-03T11:47:07;2.65;;;0.90;;
23716;SDS011;22094;52.130;5.598;2023-04-03T11:49:51;1.35;;;1.05;;
23716;SDS011;22094;52.130;5.598;2023-04-03T12:26:30;1.23;;;0.80;;
23716;SDS011;22094;52.130;5.598;2023-04-03T12:31:42;3.80;;;0.90;;
23716;SDS011;22094;52.130;5.598;2023-04-03T12:34:24;2.45;;;1.05;;
23716;SDS011;22094;52.130;5.598;2023-04-03T12:37:22;3.97;;;1.45;;
23716;SDS011;22094;52.130;5.598;2023-04-03T12:42:35;2.67;;;1.10;;
23716;SDS011;22094;52.130;5.598;2023-04-03T12:45:24;3.78;;;1.30;;
23716;SDS011;22094;52.130;5.598;2023-04-03T12:47:51;2.85;;;1.00;;
23716;SDS011;22094;52.130;5.598;2023-04-03T12:55:21;1.95;;;1.15;;
23716;SDS011;22094;52.130;5.598;2023-04-03T12:57:47;3.10;;;1.15;;
23716;SDS011;22094;52.130;5.598;2023-04-03T13:00:27;2.80;;;1.10;;
23716;SDS011;22094;52.130;5.598;2023-04-03T13:03:01;4.57;;;1.02;;
23716;SDS011;22094;52.130;5.598;2023-04-03T13:05:28;2.00;;;0.90;;
23716;SDS011;22094;52.130;5.598;2023-04-03T13:07:58;1.30;;;1.08;;
23716;SDS011;22094;52.130;5.598;2023-04-03T13:10:42;1.77;;;0.98;;
23716;SDS011;22094;52.130;5.598;2023-04-03T13:13:14;1.40;;;1.02;;
23716;SDS011;22094;52.130;5.598;2023-04-03T13:15:42;1.55;;;1.00;;
23716;SDS011;22094;52.130;5.598;2023-04-03T13:18:30;2.33;;;1.20;;
23716;SDS011;22094;52.130;5.598;2023-04-03T13:20:58;2.75;;;1.20;;
23716;SDS011;22094;52.130;5.598;2023-04-03T13:23:28;2.72;;;1.00;;
23716;SDS011;22094;52.130;5.598;2023-04-03T13:25:56;1.85;;;1.02;;
23716;SDS011;22094;52.130;5.598;2023-04-03T13:28:25;1.75;;;1.23;;
23716;SDS011;22094;52.130;5.598;2023-04-03T13:30:59;3.65;;;1.30;;
23716;SDS011;22094;52.130;5.598;2023-04-03T13:36:45;1.50;;;1.10;;
23716;SDS011;22094;52.130;5.598;2023-04-03T13:39:36;4.53;;;1.30;;
23716;SDS011;22094;52.130;5.598;2023-04-03T13:42:23;1.63;;;1.10;;
23716;SDS011;22094;52.130;5.598;2023-04-03T13:47:46;3.38;;;1.30;;
23716;SDS011;22094;52.130;5.598;2023-04-03T13:50:18;2.85;;;1.33;;
23716;SDS011;22094;52.130;5.598;2023-04-03T13:53:33;2.45;;;1.33;;
23716;SDS011;22094;52.130;5.598;2023-04-03T13:55:39;2.35;;;1.15;;
23716;SDS011;22094;52.130;5.598;2023-04-03T13:58:23;5.07;;;1.50;;
23716;SDS011;22094;52.130;5.598;2023-04-03T14:01:05;2.90;;;1.15;;
23716;SDS011;22094;52.130;5.598;2023-04-03T14:03:45;2.03;;;1.20;;
23716;SDS011;22094;52.130;5.598;2023-04-03T14:06:13;2.35;;;1.10;;
23716;SDS011;22094;52.130;5.598;2023-04-03T14:08:41;3.88;;;1.60;;
23716;SDS011;22094;52.130;5.598;2023-04-03T14:11:29;6.35;;;1.90;;
23716;SDS011;22094;52.130;5.598;2023-04-03T14:13:55;3.58;;;1.25;;
23716;SDS011;22094;52.130;5.598;2023-04-03T14:16:27;3.22;;;1.13;;
23716;SDS011;22094;52.130;5.598;2023-04-03T14:18:56;2.38;;;1.33;;
23716;SDS011;22094;52.130;5.598;2023-04-03T14:21:22;2.53;;;1.20;;
23716;SDS011;22094;52.130;5.598;2023-04-03T14:23:48;2.30;;;1.25;;
23716;SDS011;22094;52.130;5.598;2023-04-03T14:26:18;4.25;;;1.60;;
23716;SDS011;22094;52.130;5.598;2023-04-03T14:28:46;5.07;;;1.70;;
23716;SDS011;22094;52.130;5.598;2023-04-03T14:31:15;2.90;;;1.35;;
23716;SDS011;22094;52.130;5.598;2023-04-03T14:33:41;3.03;;;1.60;;
23716;SDS011;22094;52.130;5.598;2023-04-03T14:36:40;2.85;;;1.30;;
23716;SDS011;22094;52.130;5.598;2023-04-03T14:38:59;3.40;;;1.60;;
23716;SDS011;22094;52.130;5.598;2023-04-03T14:41:25;2.20;;;1.50;;
23716;SDS011;22094;52.130;5.598;2023-04-03T14:43:52;2.20;;;1.40;;
23716;SDS011;22094;52.130;5.598;2023-04-03T14:48:51;2.22;;;1.40;;
23716;SDS011;22094;52.130;5.598;2023-04-03T14:51:17;5.35;;;1.60;;
23716;SDS011;22094;52.130;5.598;2023-04-03T14:53:43;3.33;;;1.58;;
23716;SDS011;22094;52.130;5.598;2023-04-03T14:56:14;4.55;;;2.05;;
23716;SDS011;22094;52.130;5.598;2023-04-03T14:58:42;4.13;;;2.80;;
23716;SDS011;22094;52.130;5.598;2023-04-03T15:01:09;5.85;;;1.60;;
23716;SDS011;22094;52.130;5.598;2023-04-03T15:03:37;2.83;;;1.20;;
23716;SDS011;22094;52.130;5.598;2023-04-03T15:06:02;3.25;;;1.40;;
23716;SDS011;22094;52.130;5.598;2023-04-03T15:08:28;4.10;;;1.67;;
23716;SDS011;22094;52.130;5.598;2023-04-03T15:10:55;2.15;;;1.50;;
23716;SDS011;22094;52.130;5.598;2023-04-03T15:13:21;3.38;;;1.50;;
23716;SDS011;22094;52.130;5.598;2023-04-03T15:15:48;6.55;;;1.95;;
23716;SDS011;22094;52.130;5.598;2023-04-03T15:18:15;3.95;;;1.60;;
23716;SDS011;22094;52.130;5.598;2023-04-03T15:20:47;2.50;;;1.40;;
23716;SDS011;22094;52.130;5.598;2023-04-03T15:23:13;3.58;;;1.60;;
23716;SDS011;22094;52.130;5.598;2023-04-03T15:25:40;3.45;;;1.50;;
23716;SDS011;22094;52.130;5.598;2023-04-03T15:28:08;2.42;;;1.58;;
23716;SDS011;22094;52.130;5.598;2023-04-03T15:30:41;3.65;;;1.40;;
23716;SDS011;22094;52.130;5.598;2023-04-03T15:33:07;3.15;;;1.20;;
23716;SDS011;22094;52.130;5.598;2023-04-03T15:35:33;4.65;;;1.60;;
23716;SDS011;22094;52.130;5.598;2023-04-03T15:37:59;4.25;;;1.50;;
23716;SDS011;22094;52.130;5.598;2023-04-03T15:40:25;3.40;;;1.77;;
23716;SDS011;22094;52.130;5.598;2023-04-03T15:42:51;3.55;;;1.55;;
23716;SDS011;22094;52.130;5.598;2023-04-03T15:45:17;3.28;;;1.65;;
23716;SDS011;22094;52.130;5.598;2023-04-03T15:47:42;2.42;;;1.60;;
23716;SDS011;22094;52.130;5.598;2023-04-03T15:50:08;3.28;;;1.63;;
23716;SDS011;22094;52.130;5.598;2023-04-03T15:52:34;2.08;;;1.45;;
23716;SDS011;22094;52.130;5.598;2023-04-03T15:55:00;2.60;;;1.50;;
23716;SDS011;22094;52.130;5.598;2023-04-03T15:57:26;2.35;;;1.40;;
23716;SDS011;22094;52.130;5.598;2023-04-03T15:59:52;2.47;;;1.60;;
23716;SDS011;22094;52.130;5.598;2023-04-03T16:02:18;1.98;;;1.50;;
23716;SDS011;22094;52.130;5.598;2023-04-03T16:04:44;3.25;;;1.40;;
23716;SDS011;22094;52.130;5.598;2023-04-03T16:07:09;3.92;;;1.70;;
23716;SDS011;22094;52.130;5.598;2023-04-03T16:09:35;2.75;;;1.60;;
23716;SDS011;22094;52.130;5.598;2023-04-03T16:12:01;2.53;;;1.48;;
23716;SDS011;22094;52.130;5.598;2023-04-03T16:14:27;4.70;;;1.52;;
23716;SDS011;22094;52.130;5.598;2023-04-03T16:16:55;5.00;;;1.70;;
23716;SDS011;22094;52.130;5.598;2023-04-03T16:19:21;8.05;;;1.83;;
23716;SDS011;22094;52.130;5.598;2023-04-03T16:21:47;2.75;;;1.50;;
23716;SDS011;22094;52.130;5.598;2023-04-03T16:24:13;3.63;;;1.90;;
23716;SDS011;22094;52.130;5.598;2023-04-03T16:26:39;2.17;;;1.45;;
23716;SDS011;22094;52.130;5.598;2023-04-03T16:29:05;5.38;;;1.73;;
23716;SDS011;22094;52.130;5.598;2023-04-03T16:31:31;2.92;;;1.60;;
23716;SDS011;22094;52.130;5.598;2023-04-03T16:33:58;3.22;;;1.45;;
23716;SDS011;22094;52.130;5.598;2023-04-03T16:36:24;1.55;;;1.30;;
23716;SDS011;22094;52.130;5.598;2023-04-03T16:38:50;2.25;;;1.23;;
23716;SDS011;22094;52.130;5.598;2023-04-03T16:41:16;4.43;;;1.48;;
23716;SDS011;22094;52.130;5.598;2023-04-03T16:43:42;3.47;;;1.60;;